Time;durP1;ratioP1;P1;durP2;ratioP2;P2;SDS_P1;SDS_P2;PMS_P1;PMS_P2;Temp;Humidity;BMP_temperature;BMP_pressure;BME280_temperature;BME280_humidity;BME280_pressure;Samples;Min_cycle;Max_cycle;Signal;HPM_P1;HPM_P2
2022/07/11 00:02:23;;;;;;;1.25;1.15;;;;;;;;;;5038279;28;20464;-74
2022/07/11 00:04:49;;;;;;;2.65;1.30;;;;;;;;;;5037577;28;20120;-74
2022/07/11 00:07:15;;;;;;;3.08;1.20;;;;;;;;;;5037706;28;20107;-74
2022/07/11 00:09:41;;;;;;;3.00;1.08;;;;;;;;;;5037470;28;20067;-74
2022/07/11 00:12:08;;;;;;;1.20;1.15;;;;;;;;;;5037687;28;20045;-74
2022/07/11 00:14:34;;;;;;;4.53;1.10;;;;;;;;;;5037671;28;20040;-74
2022/07/11 00:17:01;;;;;;;4.85;1.27;;;;;;;;;;5037385;28;20045;-74
2022/07/11 00:19:27;;;;;;;2.97;1.48;;;;;;;;;;5037580;28;20099;-74
2022/07/11 00:21:53;;;;;;;3.08;1.50;;;;;;;;;;5037552;28;20053;-74
2022/07/11 00:24:20;;;;;;;1.92;1.30;;;;;;;;;;5038050;28;20507;-74
2022/07/11 00:26:49;;;;;;;2.08;1.20;;;;;;;;;;5037108;28;20184;-74
2022/07/11 00:29:15;;;;;;;1.83;1.30;;;;;;;;;;5037895;28;20068;-74
2022/07/11 00:31:41;;;;;;;2.17;1.30;;;;;;;;;;5037307;28;20041;-74
2022/07/11 00:34:07;;;;;;;4.93;1.30;;;;;;;;;;5037362;28;20037;-74
2022/07/11 00:36:34;;;;;;;1.75;1.30;;;;;;;;;;5037490;28;20522;-74
2022/07/11 00:39:00;;;;;;;2.47;1.52;;;;;;;;;;5036943;28;20083;-74
2022/07/11 00:41:26;;;;;;;3.30;1.30;;;;;;;;;;5037113;28;20115;-74
2022/07/11 00:43:53;;;;;;;1.52;1.23;;;;;;;;;;5037133;28;20033;-74
2022/07/11 00:46:20;;;;;;;1.58;1.20;;;;;;;;;;5036830;28;20476;-74
2022/07/11 00:48:46;;;;;;;3.05;1.33;;;;;;;;;;5036739;28;20049;-74
2022/07/11 00:51:13;;;;;;;2.40;1.20;;;;;;;;;;5037451;28;20048;-74
2022/07/11 00:53:39;;;;;;;1.42;1.30;;;;;;;;;;5037194;28;20115;-74
2022/07/11 00:56:07;;;;;;;4.22;1.40;;;;;;;;;;5036581;28;20149;-74
2022/07/11 00:58:33;;;;;;;1.30;1.20;;;;;;;;;;5036840;28;20071;-74
2022/07/11 01:01:00;;;;;;;1.40;1.23;;;;;;;;;;5036325;28;20061;-74
2022/07/11 01:03:26;;;;;;;1.73;1.50;;;;;;;;;;5035251;28;20037;-74
2022/07/11 01:05:52;;;;;;;3.97;1.48;;;;;;;;;;5036695;28;20121;-74
2022/07/11 01:08:19;;;;;;;1.70;1.30;;;;;;;;;;5036335;28;20041;-74
2022/07/11 01:10:45;;;;;;;2.20;1.48;;;;;;;;;;5036602;28;20164;-74
2022/07/11 01:13:11;;;;;;;2.42;1.45;;;;;;;;;;5035990;28;20099;-74
2022/07/11 01:15:38;;;;;;;1.50;1.40;;;;;;;;;;5036022;28;20114;-74
2022/07/11 01:18:04;;;;;;;2.05;1.20;;;;;;;;;;5036104;28;20041;-74
2022/07/11 01:20:30;;;;;;;1.80;1.30;;;;;;;;;;5036633;28;20095;-74
2022/07/11 01:23:02;;;;;;;1.33;1.23;;;;;;;;;;5036350;28;20040;-74
2022/07/11 01:25:30;;;;;;;3.03;1.40;;;;;;;;;;5035695;28;20113;-74
2022/07/11 01:28:00;;;;;;;3.33;1.52;;;;;;;;;;5035838;28;20045;-74
2022/07/11 01:30:26;;;;;;;4.45;1.58;;;;;;;;;;5036339;28;20084;-74
2022/07/11 01:32:53;;;;;;;5.30;1.50;;;;;;;;;;5035916;28;20042;-74
2022/07/11 01:35:20;;;;;;;1.48;1.30;;;;;;;;;;5035784;28;20065;-74
2022/07/11 01:37:46;;;;;;;4.47;1.50;;;;;;;;;;5035502;28;20068;-74
2022/07/11 01:40:12;;;;;;;3.28;1.20;;;;;;;;;;5036211;28;20171;-74
2022/07/11 01:42:38;;;;;;;1.80;1.38;;;;;;;;;;5035461;28;20042;-74
2022/07/11 01:45:04;;;;;;;1.30;1.10;;;;;;;;;;5035731;28;20045;-74
2022/07/11 01:47:31;;;;;;;2.85;1.42;;;;;;;;;;5035823;28;20519;-74
2022/07/11 01:49:57;;;;;;;5.55;1.42;;;;;;;;;;5035893;28;20084;-74
2022/07/11 01:52:23;;;;;;;2.15;1.60;;;;;;;;;;5035254;28;20586;-74
2022/07/11 01:54:49;;;;;;;1.35;1.25;;;;;;;;;;5035532;28;20037;-74
2022/07/11 01:57:15;;;;;;;2.10;1.40;;;;;;;;;;5035411;28;20075;-74
2022/07/11 01:59:42;;;;;;;1.58;1.48;;;;;;;;;;5035681;28;20049;-74
2022/07/11 02:02:08;;;;;;;1.50;1.30;;;;;;;;;;5034597;28;20045;-74
2022/07/11 02:04:34;;;;;;;3.03;1.45;;;;;;;;;;5035314;28;20040;-74
2022/07/11 02:07:00;;;;;;;2.90;1.40;;;;;;;;;;5035118;28;20068;-74
2022/07/11 02:09:27;;;;;;;2.03;1.40;;;;;;;;;;5034918;28;20451;-74
2022/07/11 02:11:53;;;;;;;3.00;1.50;;;;;;;;;;5035069;28;20068;-74
2022/07/11 02:14:19;;;;;;;1.60;1.50;;;;;;;;;;5035021;28;20037;-74
2022/07/11 02:16:45;;;;;;;3.53;1.48;;;;;;;;;;5034979;28;20052;-74
2022/07/11 02:19:11;;;;;;;1.80;1.35;;;;;;;;;;5035088;28;20037;-74
2022/07/11 02:21:38;;;;;;;2.83;1.50;;;;;;;;;;5034628;28;20519;-74
2022/07/11 02:24:04;;;;;;;2.67;1.67;;;;;;;;;;5034627;28;20076;-74
2022/07/11 02:26:31;;;;;;;2.17;1.63;;;;;;;;;;5034704;28;20050;-74
2022/07/11 02:28:57;;;;;;;3.50;1.60;;;;;;;;;;5035193;28;20120;-74
2022/07/11 02:31:23;;;;;;;1.75;1.52;;;;;;;;;;5034885;28;20049;-74
2022/07/11 02:33:49;;;;;;;3.13;1.70;;;;;;;;;;5035366;28;20044;-74
2022/07/11 02:36:16;;;;;;;2.20;1.45;;;;;;;;;;5034519;28;20076;-74
2022/07/11 02:38:42;;;;;;;5.07;1.45;;;;;;;;;;5034946;28;20083;-74
2022/07/11 02:41:08;;;;;;;2.17;1.50;;;;;;;;;;5034919;28;20502;-74
2022/07/11 02:43:34;;;;;;;1.55;1.45;;;;;;;;;;5034493;28;20083;-74
2022/07/11 02:46:01;;;;;;;2.00;1.45;;;;;;;;;;5034317;28;20063;-74
2022/07/11 02:48:27;;;;;;;2.55;1.55;;;;;;;;;;5034388;28;20037;-74
2022/07/11 02:50:53;;;;;;;2.08;1.60;;;;;;;;;;5034051;28;20400;-74
2022/07/11 02:53:19;;;;;;;2.25;1.67;;;;;;;;;;5034571;28;20048;-74
2022/07/11 02:55:45;;;;;;;1.55;1.45;;;;;;;;;;5034929;28;20045;-74
2022/07/11 02:58:12;;;;;;;1.50;1.40;;;;;;;;;;5034285;28;20124;-74
2022/07/11 03:00:38;;;;;;;1.80;1.63;;;;;;;;;;5034089;28;20085;-74
2022/07/11 03:03:04;;;;;;;3.90;1.52;;;;;;;;;;5034514;28;20083;-74
2022/07/11 03:05:30;;;;;;;2.05;1.50;;;;;;;;;;5034442;28;20049;-74
2022/07/11 03:07:56;;;;;;;2.38;1.52;;;;;;;;;;5034346;28;20139;-74
2022/07/11 03:10:25;;;;;;;3.25;1.70;;;;;;;;;;5034361;28;20566;-74
2022/07/11 03:15:27;;;;;;;2.95;1.65;;;;;;;;;;5089260;22;20146;-74
2022/07/11 03:17:53;;;;;;;1.80;1.70;;;;;;;;;;4995253;28;20065;-74
2022/07/11 03:20:19;;;;;;;1.70;1.60;;;;;;;;;;4994981;28;20073;-74
2022/07/11 03:22:46;;;;;;;4.47;1.83;;;;;;;;;;4994910;28;20093;-74
2022/07/11 03:25:12;;;;;;;6.22;1.83;;;;;;;;;;4995150;28;20062;-74
2022/07/11 03:27:38;;;;;;;2.05;1.52;;;;;;;;;;4997344;28;20077;-74
2022/07/11 03:30:04;;;;;;;3.08;1.65;;;;;;;;;;4998907;28;20042;-74
2022/07/11 03:32:31;;;;;;;3.20;1.85;;;;;;;;;;4999101;28;20042;-74
2022/07/11 03:37:42;;;;;;;2.50;2.30;;;;;;;;;;4998529;28;20092;-74
2022/07/11 03:40:09;;;;;;;5.63;1.75;;;;;;;;;;4998692;28;20073;-74
2022/07/11 03:42:35;;;;;;;4.00;1.90;;;;;;;;;;4998633;28;20483;-74
2022/07/11 03:45:01;;;;;;;2.22;1.75;;;;;;;;;;4998247;28;20113;-74
2022/07/11 03:47:28;;;;;;;2.90;1.80;;;;;;;;;;4998433;28;20053;-74
2022/07/11 03:49:54;;;;;;;3.88;1.75;;;;;;;;;;4998346;28;20073;-74
2022/07/11 03:52:20;;;;;;;5.97;1.70;;;;;;;;;;4998416;28;20046;-74
2022/07/11 03:54:46;;;;;;;1.98;1.75;;;;;;;;;;4998607;28;20042;-74
2022/07/11 03:57:12;;;;;;;2.60;1.70;;;;;;;;;;4998315;28;20049;-74
2022/07/11 03:59:38;;;;;;;2.60;1.77;;;;;;;;;;4997832;28;20416;-74
2022/07/11 04:02:04;;;;;;;1.92;1.77;;;;;;;;;;4998256;28;20515;-74
2022/07/11 04:04:31;;;;;;;2.58;1.90;;;;;;;;;;4998127;28;20046;-74
2022/07/11 04:06:57;;;;;;;2.03;1.77;;;;;;;;;;4997991;28;20050;-74
2022/07/11 04:09:24;;;;;;;2.35;1.63;;;;;;;;;;4998186;28;20038;-74
2022/07/11 04:11:51;;;;;;;2.35;1.70;;;;;;;;;;4998634;28;20042;-74
2022/07/11 04:14:17;;;;;;;2.17;1.73;;;;;;;;;;4997720;28;20062;-74
2022/07/11 04:16:43;;;;;;;3.45;1.80;;;;;;;;;;4997711;28;20085;-74
2022/07/11 04:19:09;;;;;;;4.13;1.85;;;;;;;;;;4998273;28;20046;-74
2022/07/11 04:21:36;;;;;;;2.75;1.75;;;;;;;;;;4997839;28;20031;-74
2022/07/11 04:24:02;;;;;;;6.10;1.63;;;;;;;;;;4998121;28;20043;-74
2022/07/11 04:26:28;;;;;;;6.60;1.95;;;;;;;;;;4997986;28;20042;-74
2022/07/11 04:28:54;;;;;;;3.33;2.10;;;;;;;;;;4997760;28;20046;-74
2022/07/11 04:31:20;;;;;;;7.78;1.80;;;;;;;;;;4997712;28;20061;-74
2022/07/11 04:33:46;;;;;;;2.30;1.80;;;;;;;;;;4997771;28;20046;-73
2022/07/11 04:36:12;;;;;;;4.80;1.90;;;;;;;;;;4997345;28;20039;-74
2022/07/11 04:38:38;;;;;;;2.45;1.85;;;;;;;;;;4996219;28;20049;-73
2022/07/11 04:41:06;;;;;;;2.65;2.10;;;;;;;;;;4997669;28;20121;-73
2022/07/11 04:43:32;;;;;;;3.17;1.92;;;;;;;;;;4997668;28;20677;-74
2022/07/11 04:45:58;;;;;;;2.13;1.90;;;;;;;;;;4997380;28;20069;-73
2022/07/11 04:48:24;;;;;;;5.32;2.00;;;;;;;;;;4997912;28;20074;-74
2022/07/11 04:50:51;;;;;;;2.50;1.90;;;;;;;;;;4997081;28;20117;-73
2022/07/11 04:53:17;;;;;;;4.97;1.63;;;;;;;;;;4996958;28;20042;-74
2022/07/11 04:55:43;;;;;;;2.28;1.75;;;;;;;;;;4997472;28;20038;-74
2022/07/11 04:58:09;;;;;;;2.50;2.10;;;;;;;;;;4997088;28;20057;-74
2022/07/11 05:00:35;;;;;;;5.43;2.42;;;;;;;;;;4997159;28;20034;-74
2022/07/11 05:03:02;;;;;;;2.70;2.10;;;;;;;;;;4997729;28;20085;-74
2022/07/11 05:05:28;;;;;;;2.95;2.20;;;;;;;;;;4997086;28;20538;-74
2022/07/11 05:07:54;;;;;;;3.08;2.60;;;;;;;;;;4996711;28;20042;-74
2022/07/11 05:10:20;;;;;;;4.13;1.77;;;;;;;;;;4996760;28;20046;-73
2022/07/11 05:12:46;;;;;;;6.75;1.92;;;;;;;;;;4997231;28;20069;-74
2022/07/11 05:15:13;;;;;;;4.07;2.20;;;;;;;;;;4997266;28;20046;-74
2022/07/11 05:17:39;;;;;;;2.17;1.98;;;;;;;;;;4997187;28;20049;-75
2022/07/11 05:20:05;;;;;;;3.63;2.10;;;;;;;;;;4997279;28;20074;-75
2022/07/11 05:22:31;;;;;;;5.30;2.08;;;;;;;;;;4997114;28;20088;-74
2022/07/11 05:24:57;;;;;;;2.17;1.80;;;;;;;;;;4996547;28;20125;-75
2022/07/11 05:27:24;;;;;;;4.53;2.05;;;;;;;;;;5001074;28;20046;-75
2022/07/11 05:29:50;;;;;;;4.13;2.00;;;;;;;;;;4977382;28;20585;-75
2022/07/11 05:32:16;;;;;;;5.43;2.08;;;;;;;;;;4977386;28;20473;-74
2022/07/11 05:34:42;;;;;;;4.93;1.70;;;;;;;;;;4978004;28;20049;-75
2022/07/11 05:37:08;;;;;;;2.13;1.75;;;;;;;;;;4990858;28;20087;-74
2022/07/11 05:39:35;;;;;;;2.05;1.85;;;;;;;;;;5006181;28;20046;-74
2022/07/11 05:42:01;;;;;;;1.95;1.50;;;;;;;;;;5004652;28;20049;-74
2022/07/11 05:44:27;;;;;;;3.83;1.88;;;;;;;;;;5005783;28;20499;-73
2022/07/11 05:46:53;;;;;;;8.13;1.88;;;;;;;;;;5006055;28;20077;-74
2022/07/11 05:49:19;;;;;;;2.42;1.75;;;;;;;;;;5003896;28;20052;-74
2022/07/11 05:51:45;;;;;;;3.22;1.83;;;;;;;;;;5016088;28;20057;-74
2022/07/11 05:54:12;;;;;;;4.93;2.15;;;;;;;;;;5016052;28;20053;-74
2022/07/11 05:56:38;;;;;;;2.55;1.58;;;;;;;;;;5016317;28;20044;-74
2022/07/11 05:59:04;;;;;;;4.00;1.50;;;;;;;;;;5015597;28;20038;-74
2022/07/11 06:01:31;;;;;;;4.25;1.70;;;;;;;;;;5004506;28;20038;-74
2022/07/11 06:03:58;;;;;;;4.72;1.77;;;;;;;;;;4995057;28;20046;-74
2022/07/11 06:06:24;;;;;;;4.38;1.90;;;;;;;;;;4995755;28;20405;-74
2022/07/11 06:08:51;;;;;;;6.68;1.70;;;;;;;;;;4991441;28;20034;-74
2022/07/11 06:11:17;;;;;;;1.55;1.45;;;;;;;;;;4995155;28;20506;-75
2022/07/11 06:13:48;;;;;;;3.35;1.50;;;;;;;;;;4995800;28;20063;-74
2022/07/11 06:16:15;;;;;;;4.07;1.50;;;;;;;;;;4995894;28;20031;-74
2022/07/11 06:18:41;;;;;;;2.42;1.48;;;;;;;;;;4996648;28;20081;-74
2022/07/11 06:21:07;;;;;;;1.73;1.30;;;;;;;;;;4995335;28;20038;-74
2022/07/11 06:23:36;;;;;;;7.30;1.40;;;;;;;;;;4990873;28;20057;-74
2022/07/11 06:26:02;;;;;;;4.22;1.55;;;;;;;;;;4993823;28;20030;-75
2022/07/11 06:28:29;;;;;;;1.42;1.20;;;;;;;;;;4993559;28;20097;-75
2022/07/11 06:30:57;;;;;;;3.67;1.60;;;;;;;;;;4994714;28;20501;-76
2022/07/11 06:33:23;;;;;;;2.25;1.45;;;;;;;;;;5001763;28;20080;-76
2022/07/11 06:35:49;;;;;;;1.45;1.35;;;;;;;;;;5013923;28;20069;-76
2022/07/11 06:38:16;;;;;;;2.63;1.80;;;;;;;;;;4991702;28;20042;-76
2022/07/11 06:40:43;;;;;;;4.07;1.52;;;;;;;;;;4994308;28;20072;-75
2022/07/11 06:43:09;;;;;;;4.38;1.60;;;;;;;;;;4994780;28;20105;-75
2022/07/11 06:45:36;;;;;;;4.80;1.60;;;;;;;;;;4995138;28;20042;-75
2022/07/11 06:48:02;;;;;;;5.30;1.80;;;;;;;;;;4995175;28;20046;-75
2022/07/11 06:50:29;;;;;;;4.45;2.40;;;;;;;;;;4994945;28;20100;-75
2022/07/11 06:52:55;;;;;;;4.07;1.98;;;;;;;;;;4994877;28;20046;-75
2022/07/11 06:55:21;;;;;;;7.65;2.55;;;;;;;;;;4994174;28;20046;-75
2022/07/11 06:57:49;;;;;;;2.67;1.90;;;;;;;;;;4993667;28;20053;-75
2022/07/11 07:00:16;;;;;;;2.22;1.30;;;;;;;;;;4991284;28;20534;-74
2022/07/11 07:02:42;;;;;;;1.92;1.65;;;;;;;;;;4993530;28;20070;-74
2022/07/11 07:05:09;;;;;;;4.75;1.83;;;;;;;;;;4993259;28;20065;-74
2022/07/11 07:07:35;;;;;;;2.85;1.70;;;;;;;;;;4991631;28;20054;-75
2022/07/11 07:10:01;;;;;;;2.67;1.50;;;;;;;;;;4994616;28;20523;-74
2022/07/11 07:12:28;;;;;;;4.35;1.88;;;;;;;;;;4993742;28;20042;-76
2022/07/11 07:14:54;;;;;;;7.00;1.92;;;;;;;;;;4994251;28;20493;-76
2022/07/11 07:17:20;;;;;;;5.60;1.83;;;;;;;;;;4994554;28;20109;-76
2022/07/11 07:19:46;;;;;;;6.80;1.80;;;;;;;;;;4994323;28;20158;-75
2022/07/11 07:22:16;;;;;;;4.53;1.73;;;;;;;;;;4994373;28;20046;-75
2022/07/11 07:24:43;;;;;;;4.43;1.40;;;;;;;;;;4995135;28;20045;-75
2022/07/11 07:27:09;;;;;;;2.25;1.60;;;;;;;;;;4993405;28;20046;-75
2022/07/11 07:29:35;;;;;;;2.92;1.50;;;;;;;;;;4994136;28;20046;-76
2022/07/11 07:32:02;;;;;;;6.97;1.70;;;;;;;;;;4995026;28;20046;-75
2022/07/11 07:34:29;;;;;;;6.95;2.13;;;;;;;;;;4983189;28;20045;-76
2022/07/11 07:36:55;;;;;;;5.20;2.13;;;;;;;;;;4975093;28;20057;-76
2022/07/11 07:39:21;;;;;;;5.65;1.52;;;;;;;;;;4983771;28;20034;-76
2022/07/11 07:41:47;;;;;;;2.13;1.63;;;;;;;;;;4993361;28;20382;-76
2022/07/11 07:44:13;;;;;;;3.55;1.65;;;;;;;;;;4989242;28;20066;-75
2022/07/11 07:46:39;;;;;;;2.65;1.85;;;;;;;;;;4993757;28;20116;-76
2022/07/11 07:49:06;;;;;;;3.60;1.83;;;;;;;;;;4992757;28;20042;-76
2022/07/11 07:51:52;;;;;;;2.35;1.88;;;;;;;;;;4994034;28;20046;-76
2022/07/11 07:54:18;;;;;;;11.43;1.90;;;;;;;;;;4994836;28;20073;-75
2022/07/11 07:56:44;;;;;;;1.63;1.35;;;;;;;;;;4994812;28;20568;-76
2022/07/11 07:59:10;;;;;;;2.58;1.75;;;;;;;;;;4993257;28;20492;-76
2022/07/11 08:01:38;;;;;;;4.80;1.70;;;;;;;;;;4983984;28;20081;-76
2022/07/11 08:04:09;;;;;;;2.47;1.50;;;;;;;;;;4995006;28;20053;-76
2022/07/11 08:06:35;;;;;;;2.63;1.55;;;;;;;;;;4992764;28;20062;-76
2022/07/11 08:09:02;;;;;;;4.47;1.80;;;;;;;;;;4991720;28;20050;-76
2022/07/11 08:11:28;;;;;;;1.90;1.80;;;;;;;;;;4994678;28;20508;-76
2022/07/11 08:13:54;;;;;;;1.90;1.42;;;;;;;;;;5009844;28;20520;-76
2022/07/11 08:16:20;;;;;;;1.83;1.60;;;;;;;;;;5008686;28;20038;-75
2022/07/11 08:18:47;;;;;;;3.10;1.60;;;;;;;;;;4996987;28;20058;-76
2022/07/11 08:21:13;;;;;;;4.13;1.52;;;;;;;;;;4997565;28;20042;-76
2022/07/11 08:23:39;;;;;;;4.13;1.60;;;;;;;;;;4996727;28;20050;-76
2022/07/11 08:26:06;;;;;;;4.85;2.10;;;;;;;;;;4997022;28;20035;-76
2022/07/11 08:28:32;;;;;;;3.28;1.45;;;;;;;;;;4992287;28;20042;-74
2022/07/11 08:30:58;;;;;;;3.38;1.83;;;;;;;;;;4997514;28;20038;-76
2022/07/11 08:33:24;;;;;;;4.25;1.90;;;;;;;;;;4996724;28;20126;-75
2022/07/11 08:35:50;;;;;;;1.90;1.70;;;;;;;;;;4997050;28;20078;-76
2022/07/11 08:38:20;;;;;;;1.80;1.40;;;;;;;;;;4992045;28;20050;-75
2022/07/11 08:40:46;;;;;;;2.60;1.83;;;;;;;;;;4996657;28;20045;-76
2022/07/11 08:43:15;;;;;;;3.53;1.63;;;;;;;;;;4996574;28;20413;-76
2022/07/11 08:45:42;;;;;;;1.85;1.65;;;;;;;;;;4978180;28;20041;-77
2022/07/11 08:48:09;;;;;;;2.45;1.70;;;;;;;;;;4984208;28;20047;-76
2022/07/11 08:50:35;;;;;;;3.78;2.20;;;;;;;;;;4996358;28;20093;-75
2022/07/11 08:53:03;;;;;;;2.97;1.92;;;;;;;;;;4995340;28;20493;-76
2022/07/11 08:55:29;;;;;;;3.20;1.85;;;;;;;;;;4975477;28;20088;-75
2022/07/11 08:57:55;;;;;;;2.95;2.08;;;;;;;;;;4996215;28;20050;-75
2022/07/11 09:00:21;;;;;;;2.92;1.92;;;;;;;;;;4996660;28;20092;-75
2022/07/11 09:02:49;;;;;;;2.33;1.75;;;;;;;;;;4995097;28;20058;-75
2022/07/11 09:05:15;;;;;;;4.28;1.80;;;;;;;;;;4993650;28;20045;-75
2022/07/11 09:07:46;;;;;;;1.92;1.65;;;;;;;;;;4995592;28;20140;-74
2022/07/11 09:10:12;;;;;;;2.75;1.70;;;;;;;;;;4995620;28;20121;-76
2022/07/11 09:12:57;;;;;;;3.92;1.80;;;;;;;;;;4994317;28;20042;-76
2022/07/11 09:15:44;;;;;;;4.20;1.70;;;;;;;;;;4995820;28;20062;-75
2022/07/11 09:18:28;;;;;;;4.22;1.40;;;;;;;;;;4992844;28;20042;-75
2022/07/11 09:26:25;;;;;;;2.83;1.73;;;;;;;;;;4995176;28;20045;-77
2022/07/11 09:29:02;;;;;;;2.13;1.60;;;;;;;;;;4995106;28;20051;-75
2022/07/11 09:31:29;;;;;;;1.75;1.63;;;;;;;;;;4995063;28;20030;-75
2022/07/11 09:33:59;;;;;;;3.60;1.70;;;;;;;;;;4996141;28;20064;-76
2022/07/11 09:36:38;;;;;;;5.13;2.13;;;;;;;;;;4995172;28;20069;-76
2022/07/11 09:39:05;;;;;;;2.88;1.65;;;;;;;;;;4995460;28;20034;-76
2022/07/11 09:41:33;;;;;;;3.92;1.88;;;;;;;;;;4996045;28;20125;-76
2022/07/11 09:44:12;;;;;;;3.67;2.10;;;;;;;;;;4992031;28;20038;-76
2022/07/11 09:46:39;;;;;;;3.10;1.58;;;;;;;;;;4996074;28;20042;-76
2022/07/11 09:49:06;;;;;;;2.80;1.90;;;;;;;;;;4995461;28;20050;-76
2022/07/11 09:51:33;;;;;;;3.65;1.70;;;;;;;;;;4995382;28;20030;-76
2022/07/11 09:53:59;;;;;;;4.90;1.80;;;;;;;;;;4993867;28;20046;-75
2022/07/11 09:56:26;;;;;;;4.22;1.90;;;;;;;;;;4992297;28;20038;-75
2022/07/11 09:58:59;;;;;;;2.63;1.58;;;;;;;;;;4976039;28;20585;-75
2022/07/11 10:01:27;;;;;;;2.88;1.90;;;;;;;;;;4990822;28;20072;-76
2022/07/11 10:03:53;;;;;;;4.30;1.75;;;;;;;;;;4994010;28;20073;-75
2022/07/11 10:06:19;;;;;;;3.03;1.80;;;;;;;;;;4994546;28;20038;-75
2022/07/11 10:08:45;;;;;;;2.85;1.70;;;;;;;;;;4994019;28;20047;-74
2022/07/11 10:11:12;;;;;;;3.67;1.80;;;;;;;;;;4995547;28;20122;-74
2022/07/11 10:13:39;;;;;;;3.47;1.70;;;;;;;;;;4994716;28;20081;-75
2022/07/11 10:16:10;;;;;;;5.88;1.92;;;;;;;;;;4994703;28;20145;-75
2022/07/11 10:18:42;;;;;;;2.28;1.90;;;;;;;;;;4992350;28;20057;-75
2022/07/11 10:21:12;;;;;;;5.35;2.00;;;;;;;;;;4995201;28;20050;-75
2022/07/11 10:23:50;;;;;;;5.03;1.77;;;;;;;;;;4993468;28;20509;-75
2022/07/11 10:26:17;;;;;;;4.07;1.90;;;;;;;;;;4991773;28;20791;-75
2022/07/11 10:28:52;;;;;;;4.65;1.60;;;;;;;;;;4994499;28;20045;-76
2022/07/11 10:31:19;;;;;;;2.85;1.70;;;;;;;;;;4989699;28;20031;-76
2022/07/11 10:34:03;;;;;;;3.42;2.47;;;;;;;;;;4994325;28;20042;-75
2022/07/11 10:36:30;;;;;;;6.07;1.88;;;;;;;;;;4977572;28;20609;-76
2022/07/11 10:39:15;;;;;;;6.28;2.08;;;;;;;;;;4992931;28;20042;-75
2022/07/11 10:41:41;;;;;;;5.63;2.40;;;;;;;;;;4993106;28;20045;-75
2022/07/11 10:44:07;;;;;;;6.10;2.00;;;;;;;;;;4995314;28;20038;-76
2022/07/11 10:46:35;;;;;;;3.70;2.20;;;;;;;;;;4987043;28;20054;-75
2022/07/11 10:49:16;;;;;;;8.68;2.10;;;;;;;;;;5003202;28;20128;-75
2022/07/11 10:51:42;;;;;;;6.25;1.90;;;;;;;;;;4994715;28;20034;-75
2022/07/11 10:54:26;;;;;;;4.50;1.83;;;;;;;;;;4991670;28;20042;-76
2022/07/11 10:57:04;;;;;;;8.18;2.58;;;;;;;;;;4985239;28;20050;-76
2022/07/11 10:59:30;;;;;;;6.45;1.88;;;;;;;;;;4991116;28;20044;-75
2022/07/11 11:02:10;;;;;;;3.90;2.00;;;;;;;;;;4992797;28;20046;-76
2022/07/11 11:04:58;;;;;;;4.68;2.20;;;;;;;;;;4994133;28;20050;-76
2022/07/11 11:07:27;;;;;;;4.03;2.55;;;;;;;;;;4994987;28;20441;-76
2022/07/11 11:09:53;;;;;;;5.18;2.20;;;;;;;;;;4993749;28;20048;-76
2022/07/11 11:12:20;;;;;;;6.55;2.03;;;;;;;;;;4994304;28;20045;-76
2022/07/11 11:14:46;;;;;;;4.25;2.08;;;;;;;;;;4994400;28;20055;-76
2022/07/11 11:17:31;;;;;;;4.32;2.03;;;;;;;;;;4994271;28;20096;-76
2022/07/11 11:19:57;;;;;;;5.00;2.50;;;;;;;;;;4986251;28;20050;-76
2022/07/11 11:22:24;;;;;;;4.90;2.10;;;;;;;;;;4994540;28;20038;-77
2022/07/11 11:24:54;;;;;;;2.80;2.03;;;;;;;;;;4973451;28;20166;-76
2022/07/11 11:27:21;;;;;;;11.57;2.40;;;;;;;;;;4988974;28;20046;-75
2022/07/11 11:29:48;;;;;;;5.38;2.17;;;;;;;;;;4989832;28;20042;-76
2022/07/11 11:32:15;;;;;;;3.42;1.92;;;;;;;;;;4987813;28;20071;-76
2022/07/11 11:34:41;;;;;;;2.63;2.00;;;;;;;;;;4989678;28;20122;-77
2022/07/11 11:37:08;;;;;;;4.25;2.08;;;;;;;;;;4987022;28;20085;-78
2022/07/11 11:39:36;;;;;;;8.20;2.20;;;;;;;;;;4994323;28;20046;-77
2022/07/11 11:42:09;;;;;;;4.18;2.03;;;;;;;;;;4992691;28;20073;-76
2022/07/11 11:44:48;;;;;;;5.40;2.00;;;;;;;;;;4991822;28;20058;-76
2022/07/11 11:47:14;;;;;;;5.68;2.40;;;;;;;;;;4990957;28;20050;-76
2022/07/11 11:49:45;;;;;;;2.47;1.83;;;;;;;;;;4996385;28;20121;-76
2022/07/11 11:52:11;;;;;;;;;;;;;;;;;;4996947;28;20061;-74
2022/07/11 11:54:39;;;;;;;4.95;2.20;;;;;;;;;;4996249;28;19916;-77
2022/07/11 11:57:12;;;;;;;3.53;2.13;;;;;;;;;;4995754;28;20121;-76
2022/07/11 11:59:39;;;;;;;4.68;2.17;;;;;;;;;;4996819;28;20126;-76
2022/07/11 12:02:05;;;;;;;4.78;2.15;;;;;;;;;;4997064;28;20042;-77
2022/07/11 12:04:32;;;;;;;4.28;2.30;;;;;;;;;;4997788;28;20054;-76
2022/07/11 12:06:59;;;;;;;3.67;2.30;;;;;;;;;;4997329;28;20129;-76
2022/07/11 12:09:46;;;;;;;4.32;2.20;;;;;;;;;;4998136;28;20039;-77
2022/07/11 12:14:56;;;;;;;3.70;2.17;;;;;;;;;;4984593;28;20066;-76
2022/07/11 12:17:25;;;;;;;3.42;2.40;;;;;;;;;;4996975;28;20034;-76
2022/07/11 12:19:52;;;;;;;2.35;2.00;;;;;;;;;;4988265;28;20484;-76
2022/07/11 12:22:18;;;;;;;3.40;1.88;;;;;;;;;;4996965;28;20496;-76
2022/07/11 12:24:51;;;;;;;3.85;2.10;;;;;;;;;;4997339;28;20125;-76
2022/07/11 12:27:21;;;;;;;6.35;2.47;;;;;;;;;;4997432;28;20064;-75
2022/07/11 12:29:50;;;;;;;5.13;2.40;;;;;;;;;;4987765;28;20660;-76
2022/07/11 12:32:17;;;;;;;3.92;2.40;;;;;;;;;;4994703;28;20266;-77
2022/07/11 12:34:44;;;;;;;4.55;2.20;;;;;;;;;;4997319;28;20050;-77
2022/07/11 12:37:16;;;;;;;5.28;2.08;;;;;;;;;;4997272;28;20046;-77
2022/07/11 12:40:00;;;;;;;4.05;2.17;;;;;;;;;;4997108;28;20038;-75
2022/07/11 12:42:27;;;;;;;6.10;2.30;;;;;;;;;;4996809;28;20053;-76
2022/07/11 12:44:59;;;;;;;5.07;2.60;;;;;;;;;;4994529;28;20165;-76
2022/07/11 12:47:27;;;;;;;2.53;1.98;;;;;;;;;;4994875;28;20057;-76
2022/07/11 12:49:54;;;;;;;3.72;2.55;;;;;;;;;;4994942;28;20058;-77
2022/07/11 12:52:20;;;;;;;2.45;2.10;;;;;;;;;;4996738;28;20508;-76
2022/07/11 12:54:47;;;;;;;4.45;2.10;;;;;;;;;;4996810;28;20066;-77
2022/07/11 12:57:22;;;;;;;5.28;2.03;;;;;;;;;;4997132;28;20042;-77
2022/07/11 12:59:48;;;;;;;3.38;1.80;;;;;;;;;;4990013;28;20045;-77
2022/07/11 13:02:15;;;;;;;5.10;2.30;;;;;;;;;;4977194;28;20440;-76
2022/07/11 13:04:42;;;;;;;4.88;2.30;;;;;;;;;;4977049;28;20425;-76
2022/07/11 13:10:06;;;;;;;5.30;2.17;;;;;;;;;;4987104;28;20113;-77
2022/07/11 13:12:32;;;;;;;3.90;2.05;;;;;;;;;;4997283;28;20553;-76
2022/07/11 13:15:09;;;;;;;3.20;2.10;;;;;;;;;;4996620;28;20484;-76
2022/07/11 13:17:41;;;;;;;3.03;2.08;;;;;;;;;;4996770;28;20065;-75
2022/07/11 13:20:08;;;;;;;4.43;2.53;;;;;;;;;;4996281;28;20034;-76
2022/07/11 13:22:35;;;;;;;6.65;2.35;;;;;;;;;;4979149;28;20667;-76
2022/07/11 13:25:01;;;;;;;2.50;2.15;;;;;;;;;;4996056;28;20050;-76
2022/07/11 13:27:27;;;;;;;2.53;2.30;;;;;;;;;;4996515;28;20053;-76
2022/07/11 13:29:53;;;;;;;2.40;1.98;;;;;;;;;;4996063;28;20536;-76
2022/07/11 13:32:19;;;;;;;3.80;2.17;;;;;;;;;;4996236;28;20030;-77
2022/07/11 13:34:48;;;;;;;2.53;2.10;;;;;;;;;;4996173;28;20128;-77
2022/07/11 13:37:15;;;;;;;5.15;2.17;;;;;;;;;;4996287;28;20424;-77
2022/07/11 13:39:41;;;;;;;5.28;2.28;;;;;;;;;;4994668;28;20045;-77
2022/07/11 13:42:07;;;;;;;5.20;2.22;;;;;;;;;;4995090;28;20038;-76
2022/07/11 13:44:33;;;;;;;5.25;2.00;;;;;;;;;;4978992;28;20080;-76
2022/07/11 13:47:00;;;;;;;2.40;2.20;;;;;;;;;;4994702;28;20505;-77
2022/07/11 13:49:26;;;;;;;3.90;2.20;;;;;;;;;;4995803;28;20034;-76
2022/07/11 13:51:52;;;;;;;3.28;2.38;;;;;;;;;;4989886;28;20034;-76
2022/07/11 13:54:18;;;;;;;3.30;2.10;;;;;;;;;;4995565;28;20046;-76
2022/07/11 13:56:45;;;;;;;4.18;1.90;;;;;;;;;;4994955;28;20497;-76
2022/07/11 13:59:11;;;;;;;2.60;2.40;;;;;;;;;;4994845;28;20140;-76
2022/07/11 14:01:37;;;;;;;2.38;2.17;;;;;;;;;;4995891;28;20061;-76
2022/07/11 14:04:03;;;;;;;3.70;2.20;;;;;;;;;;4995475;28;20073;-77
2022/07/11 14:06:31;;;;;;;5.57;2.63;;;;;;;;;;4995085;28;20042;-76
2022/07/11 14:08:57;;;;;;;6.22;2.13;;;;;;;;;;4995443;28;20046;-76
2022/07/11 14:11:24;;;;;;;3.30;2.75;;;;;;;;;;4994811;28;20181;-76
2022/07/11 14:13:50;;;;;;;5.38;2.30;;;;;;;;;;4977496;28;20442;-76
2022/07/11 14:16:18;;;;;;;9.07;2.60;;;;;;;;;;4995608;28;20035;-76
2022/07/11 14:18:44;;;;;;;4.40;2.40;;;;;;;;;;4995660;28;20049;-76
2022/07/11 14:21:10;;;;;;;4.93;2.70;;;;;;;;;;4996437;28;20042;-75
2022/07/11 14:23:36;;;;;;;3.17;2.20;;;;;;;;;;4994857;28;20527;-75
2022/07/11 14:26:06;;;;;;;4.82;2.60;;;;;;;;;;4994133;28;20117;-76
2022/07/11 14:28:32;;;;;;;5.25;2.40;;;;;;;;;;4993621;28;20525;-75
2022/07/11 14:30:59;;;;;;;3.75;2.40;;;;;;;;;;4977512;28;20539;-75
2022/07/11 14:33:25;;;;;;;4.00;2.25;;;;;;;;;;4995061;28;20543;-75
2022/07/11 14:35:51;;;;;;;2.47;2.20;;;;;;;;;;4994918;28;20046;-75
2022/07/11 14:38:17;;;;;;;2.83;2.63;;;;;;;;;;4995498;28;20073;-75
2022/07/11 14:40:44;;;;;;;3.05;2.20;;;;;;;;;;4995942;28;20038;-75
2022/07/11 14:43:10;;;;;;;3.95;2.22;;;;;;;;;;4995737;28;20042;-75
2022/07/11 14:45:36;;;;;;;3.97;2.63;;;;;;;;;;4995362;28;20497;-75
2022/07/11 14:48:03;;;;;;;3.08;2.22;;;;;;;;;;4995457;28;20137;-75
2022/07/11 14:50:29;;;;;;;4.60;2.60;;;;;;;;;;4995570;28;20038;-76
2022/07/11 14:52:56;;;;;;;2.88;2.55;;;;;;;;;;4995515;28;20193;-75
2022/07/11 14:55:22;;;;;;;4.03;2.40;;;;;;;;;;4995173;28;20034;-75
2022/07/11 14:57:48;;;;;;;4.53;2.30;;;;;;;;;;4993313;28;20049;-76
2022/07/11 15:00:15;;;;;;;5.88;2.30;;;;;;;;;;4976953;28;20038;-75
2022/07/11 15:05:26;;;;;;;4.05;2.53;;;;;;;;;;4994458;28;20041;-76